sensor_id;sensor_type;location;lat;lon;timestamp;pressure;altitude;pressure_sealevel;temperature;humidity
75543;BME280;64129;53.508;10.476;2023-10-09T00:00:58;101613.94;;;11.33;98.28
75543;BME280;64129;53.508;10.476;2023-10-09T00:03:44;101622.03;;;11.24;98.51
75543;BME280;64129;53.508;10.476;2023-10-09T00:06:14;101639.78;;;11.22;100.00
75543;BME280;64129;53.508;10.476;2023-10-09T00:08:53;101638.78;;;11.32;98.99
75543;BME280;64129;53.508;10.476;2023-10-09T00:11:42;101620.97;;;11.37;99.30
75543;BME280;64129;53.508;10.476;2023-10-09T00:14:19;101612.72;;;10.88;100.00
75543;BME280;64129;53.508;10.476;2023-10-09T00:16:46;101616.75;;;11.22;100.00
75543;BME280;64129;53.508;10.476;2023-10-09T00:19:22;101629.13;;;11.23;100.00
75543;BME280;64129;53.508;10.476;2023-10-09T00:22:06;101623.81;;;11.25;100.00
75543;BME280;64129;53.508;10.476;2023-10-09T00:25:04;101611.28;;;11.33;99.77
75543;BME280;64129;53.508;10.476;2023-10-09T00:27:46;101588.28;;;11.31;99.74
75543;BME280;64129;53.508;10.476;2023-10-09T00:30:22;101571.41;;;11.32;99.51
75543;BME280;64129;53.508;10.476;2023-10-09T00:32:58;101570.66;;;11.22;100.00
75543;BME280;64129;53.508;10.476;2023-10-09T00:35:26;101560.03;;;11.22;99.67
75543;BME280;64129;53.508;10.476;2023-10-09T00:38:21;101554.66;;;11.25;99.41
75543;BME280;64129;53.508;10.476;2023-10-09T00:40:56;101540.69;;;11.08;100.00
75543;BME280;64129;53.508;10.476;2023-10-09T00:43:38;101536.22;;;11.13;100.00
75543;BME280;64129;53.508;10.476;2023-10-09T00:46:23;101521.97;;;11.17;100.00
75543;BME280;64129;53.508;10.476;2023-10-09T00:48:59;101518.50;;;11.12;100.00
75543;BME280;64129;53.508;10.476;2023-10-09T00:51:51;101505.41;;;10.97;100.00
75543;BME280;64129;53.508;10.476;2023-10-09T00:54:23;101507.97;;;11.04;100.00
75543;BME280;64129;53.508;10.476;2023-10-09T00:56:55;101499.91;;;11.09;99.89
75543;BME280;64129;53.508;10.476;2023-10-09T00:59:26;101500.78;;;11.09;100.00
75543;BME280;64129;53.508;10.476;2023-10-09T01:02:08;101509.75;;;11.02;98.95
75543;BME280;64129;53.508;10.476;2023-10-09T01:04:39;101505.53;;;10.87;99.50
75543;BME280;64129;53.508;10.476;2023-10-09T01:07:10;101485.84;;;11.01;99.27
75543;BME280;64129;53.508;10.476;2023-10-09T01:09:48;101476.16;;;10.97;100.00
75543;BME280;64129;53.508;10.476;2023-10-09T01:12:24;101479.03;;;10.81;100.00
75543;BME280;64129;53.508;10.476;2023-10-09T01:15:03;101475.31;;;10.94;100.00
75543;BME280;64129;53.508;10.476;2023-10-09T01:17:38;101467.47;;;10.85;100.00
75543;BME280;64129;53.508;10.476;2023-10-09T01:20:27;101454.19;;;10.85;100.00
75543;BME280;64129;53.508;10.476;2023-10-09T01:23:17;101448.88;;;10.85;100.00
75543;BME280;64129;53.508;10.476;2023-10-09T01:26:05;101441.16;;;10.64;100.00
75543;BME280;64129;53.508;10.476;2023-10-09T01:28:44;101439.38;;;10.66;100.00
75543;BME280;64129;53.508;10.476;2023-10-09T01:31:19;101448.38;;;10.54;100.00
75543;BME280;64129;53.508;10.476;2023-10-09T01:33:48;101448.97;;;10.78;100.00
75543;BME280;64129;53.508;10.476;2023-10-09T01:36:17;101441.78;;;10.84;100.00
75543;BME280;64129;53.508;10.476;2023-10-09T01:38:46;101439.25;;;10.77;100.00
75543;BME280;64129;53.508;10.476;2023-10-09T01:41:30;101444.56;;;10.74;100.00
75543;BME280;64129;53.508;10.476;2023-10-09T01:44:02;101429.63;;;10.65;100.00
75543;BME280;64129;53.508;10.476;2023-10-09T01:46:56;101422.84;;;10.43;100.00
75543;BME280;64129;53.508;10.476;2023-10-09T01:49:25;101433.31;;;10.55;100.00
75543;BME280;64129;53.508;10.476;2023-10-09T01:52:05;101431.53;;;10.57;100.00
75543;BME280;64129;53.508;10.476;2023-10-09T01:54:44;101437.50;;;10.73;100.00
75543;BME280;64129;53.508;10.476;2023-10-09T01:57:20;101420.75;;;10.66;99.23
75543;BME280;64129;53.508;10.476;2023-10-09T01:59:53;101419.00;;;10.67;100.00
75543;BME280;64129;53.508;10.476;2023-10-09T02:02:37;101403.03;;;10.68;99.90
75543;BME280;64129;53.508;10.476;2023-10-09T02:05:07;101405.81;;;10.59;100.00
75543;BME280;64129;53.508;10.476;2023-10-09T02:07:35;101405.97;;;10.47;100.00
75543;BME280;64129;53.508;10.476;2023-10-09T02:10:26;101401.53;;;10.49;100.00
75543;BME280;64129;53.508;10.476;2023-10-09T02:13:06;101397.97;;;10.50;100.00
75543;BME280;64129;53.508;10.476;2023-10-09T02:15:36;101403.38;;;10.42;100.00
75543;BME280;64129;53.508;10.476;2023-10-09T02:18:20;101410.41;;;10.48;100.00
75543;BME280;64129;53.508;10.476;2023-10-09T02:23:30;101374.34;;;10.27;100.00
75543;BME280;64129;53.508;10.476;2023-10-09T02:26:22;101380.38;;;10.43;100.00
75543;BME280;64129;53.508;10.476;2023-10-09T02:29:05;101383.00;;;10.44;100.00
75543;BME280;64129;53.508;10.476;2023-10-09T02:31:49;101382.38;;;10.19;100.00
75543;BME280;64129;53.508;10.476;2023-10-09T02:34:23;101381.22;;;10.45;100.00
75543;BME280;64129;53.508;10.476;2023-10-09T02:37:00;101352.13;;;10.34;100.00
75543;BME280;64129;53.508;10.476;2023-10-09T02:39:36;101362.69;;;10.39;100.00
75543;BME280;64129;53.508;10.476;2023-10-09T02:42:19;101344.19;;;10.32;100.00
75543;BME280;64129;53.508;10.476;2023-10-09T02:44:56;101344.97;;;10.42;100.00
75543;BME280;64129;53.508;10.476;2023-10-09T02:47:36;101327.22;;;10.46;100.00
75543;BME280;64129;53.508;10.476;2023-10-09T02:50:27;101357.38;;;10.42;100.00
75543;BME280;64129;53.508;10.476;2023-10-09T02:53:07;101388.16;;;10.55;100.00
75543;BME280;64129;53.508;10.476;2023-10-09T02:55:36;101371.31;;;10.56;100.00
75543;BME280;64129;53.508;10.476;2023-10-09T02:58:13;101363.59;;;10.38;100.00
75543;BME280;64129;53.508;10.476;2023-10-09T03:00:47;101349.34;;;10.45;100.00
75543;BME280;64129;53.508;10.476;2023-10-09T03:03:25;101347.00;;;10.17;100.00
75543;BME280;64129;53.508;10.476;2023-10-09T03:05:58;101336.03;;;10.48;100.00
75543;BME280;64129;53.508;10.476;2023-10-09T03:08:33;101326.63;;;10.22;100.00
75543;BME280;64129;53.508;10.476;2023-10-09T03:11:04;101346.69;;;10.45;100.00
75543;BME280;64129;53.508;10.476;2023-10-09T03:13:34;101346.91;;;10.26;100.00
75543;BME280;64129;53.508;10.476;2023-10-09T03:16:20;101334.47;;;10.31;100.00
75543;BME280;64129;53.508;10.476;2023-10-09T03:18:52;101330.88;;;10.36;100.00
75543;BME280;64129;53.508;10.476;2023-10-09T03:21:22;101322.16;;;10.24;100.00
75543;BME280;64129;53.508;10.476;2023-10-09T03:24:02;101315.03;;;10.29;100.00
75543;BME280;64129;53.508;10.476;2023-10-09T03:26:39;101309.56;;;10.39;100.00
75543;BME280;64129;53.508;10.476;2023-10-09T03:29:24;101316.91;;;10.18;100.00
75543;BME280;64129;53.508;10.476;2023-10-09T03:31:51;101315.88;;;10.31;100.00
75543;BME280;64129;53.508;10.476;2023-10-09T03:34:24;101313.06;;;10.44;100.00
75543;BME280;64129;53.508;10.476;2023-10-09T03:36:54;101299.78;;;10.45;100.00
75543;BME280;64129;53.508;10.476;2023-10-09T03:39:51;101294.97;;;10.04;100.00
75543;BME280;64129;53.508;10.476;2023-10-09T03:42:25;101292.06;;;10.25;100.00
75543;BME280;64129;53.508;10.476;2023-10-09T03:44:56;101292.03;;;10.28;100.00
75543;BME280;64129;53.508;10.476;2023-10-09T03:47:26;101292.06;;;10.27;100.00
75543;BME280;64129;53.508;10.476;2023-10-09T03:49:56;101300.03;;;10.25;100.00
75543;BME280;64129;53.508;10.476;2023-10-09T03:52:27;101291.25;;;10.22;100.00
75543;BME280;64129;53.508;10.476;2023-10-09T03:54:59;101283.25;;;10.23;100.00
75543;BME280;64129;53.508;10.476;2023-10-09T03:57:50;101267.38;;;10.20;100.00
75543;BME280;64129;53.508;10.476;2023-10-09T04:00:21;101283.28;;;10.20;100.00
75543;BME280;64129;53.508;10.476;2023-10-09T04:02:59;101290.53;;;10.03;100.00
75543;BME280;64129;53.508;10.476;2023-10-09T04:05:28;101291.25;;;10.19;100.00
75543;BME280;64129;53.508;10.476;2023-10-09T04:07:57;101279.59;;;10.30;100.00
75543;BME280;64129;53.508;10.476;2023-10-09T04:10:42;101284.97;;;10.27;100.00
75543;BME280;64129;53.508;10.476;2023-10-09T04:13:23;101272.69;;;10.20;100.00
75543;BME280;64129;53.508;10.476;2023-10-09T04:16:06;101270.97;;;10.13;100.00
75543;BME280;64129;53.508;10.476;2023-10-09T04:19:07;101268.25;;;10.21;100.00
75543;BME280;64129;53.508;10.476;2023-10-09T04:21:53;101274.38;;;10.24;100.00
75543;BME280;64129;53.508;10.476;2023-10-09T04:24:33;101266.56;;;10.12;100.00
75543;BME280;64129;53.508;10.476;2023-10-09T04:27:15;101258.50;;;10.21;100.00
75543;BME280;64129;53.508;10.476;2023-10-09T04:29:53;101267.50;;;10.08;100.00
75543;BME280;64129;53.508;10.476;2023-10-09T04:32:33;101261.16;;;10.21;100.00
75543;BME280;64129;53.508;10.476;2023-10-09T04:35:01;101261.16;;;10.18;100.00
75543;BME280;64129;53.508;10.476;2023-10-09T04:37:51;101248.88;;;10.13;100.00
75543;BME280;64129;53.508;10.476;2023-10-09T04:40:46;101249.75;;;10.12;100.00
75543;BME280;64129;53.508;10.476;2023-10-09T04:43:13;101238.22;;;10.16;100.00
75543;BME280;64129;53.508;10.476;2023-10-09T04:45:47;101246.28;;;10.08;100.00
75543;BME280;64129;53.508;10.476;2023-10-09T04:48:38;101252.41;;;10.13;99.72
75543;BME280;64129;53.508;10.476;2023-10-09T04:51:05;101235.47;;;10.23;100.00
75543;BME280;64129;53.508;10.476;2023-10-09T04:53:52;101231.06;;;10.22;100.00
75543;BME280;64129;53.508;10.476;2023-10-09T04:56:49;101248.72;;;10.25;100.00
75543;BME280;64129;53.508;10.476;2023-10-09T04:59:22;101239.03;;;10.22;99.40
75543;BME280;64129;53.508;10.476;2023-10-09T05:02:05;101236.59;;;10.02;99.17
75543;BME280;64129;53.508;10.476;2023-10-09T05:04:49;101243.50;;;10.16;98.95
75543;BME280;64129;53.508;10.476;2023-10-09T05:07:40;101245.53;;;9.95;99.47
75543;BME280;64129;53.508;10.476;2023-10-09T05:10:26;101246.19;;;10.14;100.00
75543;BME280;64129;53.508;10.476;2023-10-09T05:12:56;101241.69;;;10.19;99.15
75543;BME280;64129;53.508;10.476;2023-10-09T05:15:31;101231.06;;;10.22;98.29
75543;BME280;64129;53.508;10.476;2023-10-09T05:18:01;101240.78;;;10.23;98.40
75543;BME280;64129;53.508;10.476;2023-10-09T05:20:39;101241.78;;;10.13;98.29
75543;BME280;64129;53.508;10.476;2023-10-09T05:24:02;101228.66;;;10.01;98.79
75543;BME280;64129;53.508;10.476;2023-10-09T05:26:49;101212.06;;;9.85;98.15
75543;BME280;64129;53.508;10.476;2023-10-09T05:29:22;101212.06;;;9.85;98.26
75543;BME280;64129;53.508;10.476;2023-10-09T05:32:06;101202.22;;;9.95;100.00
75543;BME280;64129;53.508;10.476;2023-10-09T05:34:35;101200.41;;;9.97;98.39
75543;BME280;64129;53.508;10.476;2023-10-09T05:37:28;101189.75;;;10.00;98.00
75543;BME280;64129;53.508;10.476;2023-10-09T05:40:05;101188.22;;;9.84;97.42
75543;BME280;64129;53.508;10.476;2023-10-09T05:42:45;101203.09;;;9.94;97.26
75543;BME280;64129;53.508;10.476;2023-10-09T05:45:22;101195.97;;;9.99;96.25
75543;BME280;64129;53.508;10.476;2023-10-09T05:48:09;101184.72;;;9.82;97.04
75543;BME280;64129;53.508;10.476;2023-10-09T05:50:44;101189.97;;;9.85;95.63
75543;BME280;64129;53.508;10.476;2023-10-09T05:53:33;101182.69;;;9.99;95.26
75543;BME280;64129;53.508;10.476;2023-10-09T05:56:15;101193.50;;;9.87;95.80
75543;BME280;64129;53.508;10.476;2023-10-09T05:59:06;101189.09;;;9.84;95.59
75543;BME280;64129;53.508;10.476;2023-10-09T06:01:59;101184.41;;;10.03;94.26
75543;BME280;64129;53.508;10.476;2023-10-09T06:04:28;101192.44;;;9.97;95.09
75543;BME280;64129;53.508;10.476;2023-10-09T06:07:24;101198.59;;;10.00;95.13
75543;BME280;64129;53.508;10.476;2023-10-09T06:10:11;101204.09;;;9.87;95.35
75543;BME280;64129;53.508;10.476;2023-10-09T06:13:01;101217.16;;;10.00;95.75
75543;BME280;64129;53.508;10.476;2023-10-09T06:15:38;101216.53;;;9.82;94.81
75543;BME280;64129;53.508;10.476;2023-10-09T06:18:18;101220.22;;;9.72;96.56
75543;BME280;64129;53.508;10.476;2023-10-09T06:21:07;101207.72;;;9.81;96.39
75543;BME280;64129;53.508;10.476;2023-10-09T06:23:56;101181.25;;;9.77;96.35
75543;BME280;64129;53.508;10.476;2023-10-09T06:26:49;101187.38;;;9.80;96.15
75543;BME280;64129;53.508;10.476;2023-10-09T06:29:30;101200.69;;;9.79;97.93
75543;BME280;64129;53.508;10.476;2023-10-09T06:32:22;101200.03;;;9.58;98.80
75543;BME280;64129;53.508;10.476;2023-10-09T06:35:16;101211.50;;;9.60;99.08
75543;BME280;64129;53.508;10.476;2023-10-09T06:37:52;101207.78;;;9.77;98.94
75543;BME280;64129;53.508;10.476;2023-10-09T06:40:32;101213.09;;;9.77;98.43
75543;BME280;64129;53.508;10.476;2023-10-09T06:43:29;101210.44;;;9.75;97.65
75543;BME280;64129;53.508;10.476;2023-10-09T06:46:02;101207.66;;;9.86;99.18
75543;BME280;64129;53.508;10.476;2023-10-09T06:48:55;101207.59;;;9.89;98.70
75543;BME280;64129;53.508;10.476;2023-10-09T06:51:58;101197.09;;;9.83;97.90
75543;BME280;64129;53.508;10.476;2023-10-09T06:54:45;101199.88;;;9.72;98.78
75543;BME280;64129;53.508;10.476;2023-10-09T06:57:20;101186.66;;;9.66;100.00
75543;BME280;64129;53.508;10.476;2023-10-09T07:00:10;101172.50;;;9.68;100.00
75543;BME280;64129;53.508;10.476;2023-10-09T07:03:03;101166.41;;;9.62;100.00
75543;BME280;64129;53.508;10.476;2023-10-09T07:05:46;101168.88;;;9.76;100.00
75543;BME280;64129;53.508;10.476;2023-10-09T07:08:49;101177.75;;;9.73;100.00
75543;BME280;64129;53.508;10.476;2023-10-09T07:11:37;101181.28;;;9.74;100.00
75543;BME280;64129;53.508;10.476;2023-10-09T07:17:03;101169.72;;;9.79;100.00
75543;BME280;64129;53.508;10.476;2023-10-09T07:19:52;101161.06;;;9.63;100.00
75543;BME280;64129;53.508;10.476;2023-10-09T07:22:29;101170.59;;;9.80;100.00
75543;BME280;64129;53.508;10.476;2023-10-09T07:25:11;101165.03;;;9.98;100.00
75543;BME280;64129;53.508;10.476;2023-10-09T07:27:44;101170.63;;;9.78;100.00
75543;BME280;64129;53.508;10.476;2023-10-09T07:30:16;101182.69;;;9.99;99.87
75543;BME280;64129;53.508;10.476;2023-10-09T07:33:06;101173.78;;;10.03;100.00
75543;BME280;64129;53.508;10.476;2023-10-09T07:35:48;101170.16;;;10.10;100.00
75543;BME280;64129;53.508;10.476;2023-10-09T07:38:28;101177.28;;;10.08;100.00
75543;BME280;64129;53.508;10.476;2023-10-09T07:40:56;101178.28;;;9.98;100.00
75543;BME280;64129;53.508;10.476;2023-10-09T07:43:48;101168.56;;;9.97;100.00
75543;BME280;64129;53.508;10.476;2023-10-09T07:46:20;101159.59;;;10.07;100.00
75543;BME280;64129;53.508;10.476;2023-10-09T07:49:21;101164.00;;;10.10;100.00
75543;BME280;64129;53.508;10.476;2023-10-09T07:52:04;101178.22;;;10.02;100.00
75543;BME280;64129;53.508;10.476;2023-10-09T07:54:35;101175.53;;;10.07;100.00
75543;BME280;64129;53.508;10.476;2023-10-09T07:57:04;101185.94;;;10.22;100.00
75543;BME280;64129;53.508;10.476;2023-10-09T07:59:54;101184.09;;;10.27;100.00
75543;BME280;64129;53.508;10.476;2023-10-09T08:02:41;101179.72;;;10.23;100.00
75543;BME280;64129;53.508;10.476;2023-10-09T08:05:08;101173.25;;;10.40;100.00
75543;BME280;64129;53.508;10.476;2023-10-09T08:08:15;101171.03;;;10.12;100.00
75543;BME280;64129;53.508;10.476;2023-10-09T08:11:10;101160.38;;;10.14;100.00
75543;BME280;64129;53.508;10.476;2023-10-09T08:14:03;101170.75;;;10.32;100.00
75543;BME280;64129;53.508;10.476;2023-10-09T08:16:36;101173.38;;;10.34;100.00
75543;BME280;64129;53.508;10.476;2023-10-09T08:19:04;101182.34;;;10.26;100.00
75543;BME280;64129;53.508;10.476;2023-10-09T08:21:52;101186.53;;;10.40;100.00
75543;BME280;64129;53.508;10.476;2023-10-09T08:24:46;101187.47;;;10.37;100.00
75543;BME280;64129;53.508;10.476;2023-10-09T08:27:31;101187.44;;;10.39;100.00
75543;BME280;64129;53.508;10.476;2023-10-09T08:30:05;101181.97;;;10.51;100.00
75543;BME280;64129;53.508;10.476;2023-10-09T08:32:49;101190.78;;;10.53;100.00
75543;BME280;64129;53.508;10.476;2023-10-09T08:35:47;101186.47;;;10.46;100.00
75543;BME280;64129;53.508;10.476;2023-10-09T08:38:19;101182.78;;;10.54;100.00
75543;BME280;64129;53.508;10.476;2023-10-09T08:40:51;101184.66;;;10.48;100.00
75543;BME280;64129;53.508;10.476;2023-10-09T08:43:47;101189.66;;;10.09;100.00
75543;BME280;64129;53.508;10.476;2023-10-09T08:46:25;101198.22;;;10.29;100.00
75543;BME280;64129;53.508;10.476;2023-10-09T08:48:59;101194.44;;;10.46;100.00
75543;BME280;64129;53.508;10.476;2023-10-09T08:51:28;101194.28;;;10.55;100.00
75543;BME280;64129;53.508;10.476;2023-10-09T08:53:58;101197.06;;;10.47;100.00
75543;BME280;64129;53.508;10.476;2023-10-09T08:56:32;101185.66;;;10.41;100.00
75543;BME280;64129;53.508;10.476;2023-10-09T08:58:59;101184.88;;;10.34;100.00
75543;BME280;64129;53.508;10.476;2023-10-09T09:01:33;101185.66;;;10.41;100.00
75543;BME280;64129;53.508;10.476;2023-10-09T09:04:04;101180.06;;;10.57;100.00
75543;BME280;64129;53.508;10.476;2023-10-09T09:06:44;101174.56;;;10.68;100.00
75543;BME280;64129;53.508;10.476;2023-10-09T09:09:22;101173.06;;;10.53;100.00
75543;BME280;64129;53.508;10.476;2023-10-09T09:12:05;101174.69;;;10.62;100.00
75543;BME280;64129;53.508;10.476;2023-10-09T09:14:44;101173.84;;;10.58;100.00
75543;BME280;64129;53.508;10.476;2023-10-09T09:17:37;101167.44;;;10.70;100.00
75543;BME280;64129;53.508;10.476;2023-10-09T09:20:28;101170.75;;;10.84;100.00
75543;BME280;64129;53.508;10.476;2023-10-09T09:23:10;101170.66;;;10.90;100.00
75543;BME280;64129;53.508;10.476;2023-10-09T09:25:58;101173.16;;;10.98;100.00
75543;BME280;64129;53.508;10.476;2023-10-09T09:28:51;101163.47;;;10.96;100.00
75543;BME280;64129;53.508;10.476;2023-10-09T09:31:24;101168.75;;;10.97;100.00
75543;BME280;64129;53.508;10.476;2023-10-09T09:34:01;101167.44;;;10.70;100.00
75543;BME280;64129;53.508;10.476;2023-10-09T09:37:01;101170.59;;;10.93;100.00
75543;BME280;64129;53.508;10.476;2023-10-09T09:39:38;101170.34;;;11.06;100.00
75543;BME280;64129;53.508;10.476;2023-10-09T09:42:34;101167.94;;;10.93;100.00
75543;BME280;64129;53.508;10.476;2023-10-09T09:45:04;101170.59;;;10.93;100.00
75543;BME280;64129;53.508;10.476;2023-10-09T09:47:38;101167.75;;;11.03;100.00
75543;BME280;64129;53.508;10.476;2023-10-09T09:50:17;101174.97;;;10.96;100.00
75543;BME280;64129;53.508;10.476;2023-10-09T09:53:15;101182.72;;;11.07;100.00
75543;BME280;64129;53.508;10.476;2023-10-09T09:56:06;101184.63;;;11.00;100.00
75543;BME280;64129;53.508;10.476;2023-10-09T09:58:50;101173.78;;;11.14;100.00
75543;BME280;64129;53.508;10.476;2023-10-09T10:01:35;101167.41;;;11.21;100.00
75543;BME280;64129;53.508;10.476;2023-10-09T10:04:21;101157.44;;;11.32;100.00
75543;BME280;64129;53.508;10.476;2023-10-09T10:06:57;101158.53;;;11.22;100.00
75543;BME280;64129;53.508;10.476;2023-10-09T10:09:43;101159.66;;;11.10;100.00
75543;BME280;64129;53.508;10.476;2023-10-09T10:12:50;101148.03;;;11.16;100.00
75543;BME280;64129;53.508;10.476;2023-10-09T10:18:52;101142.34;;;11.34;100.00
75543;BME280;64129;53.508;10.476;2023-10-09T10:21:31;101143.50;;;11.21;100.00
75543;BME280;64129;53.508;10.476;2023-10-09T10:24:14;101144.69;;;11.49;100.00
75543;BME280;64129;53.508;10.476;2023-10-09T10:33:07;101138.84;;;11.31;100.00
75543;BME280;64129;53.508;10.476;2023-10-09T10:35:50;101145.00;;;11.34;100.00
75543;BME280;64129;53.508;10.476;2023-10-09T10:38:33;101148.31;;;11.45;100.00
75543;BME280;64129;53.508;10.476;2023-10-09T10:41:20;101141.41;;;11.35;100.00
75543;BME280;64129;53.508;10.476;2023-10-09T10:43:52;101144.50;;;11.59;100.00
75543;BME280;64129;53.508;10.476;2023-10-09T10:46:23;101147.25;;;11.54;100.00
75543;BME280;64129;53.508;10.476;2023-10-09T10:49:00;101138.97;;;11.68;100.00
75543;BME280;64129;53.508;10.476;2023-10-09T10:51:51;101142.78;;;11.56;100.00
75543;BME280;64129;53.508;10.476;2023-10-09T10:54:50;101136.47;;;11.60;100.00
75543;BME280;64129;53.508;10.476;2023-10-09T10:57:39;101146.38;;;11.53;100.00
75543;BME280;64129;53.508;10.476;2023-10-09T11:00:40;101146.31;;;11.56;100.00
75543;BME280;64129;53.508;10.476;2023-10-09T11:03:35;101150.75;;;11.56;100.00
75543;BME280;64129;53.508;10.476;2023-10-09T11:09:06;101146.50;;;11.47;100.00
75543;BME280;64129;53.508;10.476;2023-10-09T11:11:50;101138.44;;;11.52;100.00
75543;BME280;64129;53.508;10.476;2023-10-09T11:14:49;101137.22;;;11.67;100.00
75543;BME280;64129;53.508;10.476;2023-10-09T11:18:08;101133.72;;;11.65;100.00
75543;BME280;64129;53.508;10.476;2023-10-09T11:20:51;101133.00;;;11.56;100.00
75543;BME280;64129;53.508;10.476;2023-10-09T11:23:33;101132.06;;;11.59;100.00
75543;BME280;64129;53.508;10.476;2023-10-09T11:26:23;101122.72;;;11.83;100.00
75543;BME280;64129;53.508;10.476;2023-10-09T11:29:15;101117.25;;;11.89;100.00
75543;BME280;64129;53.508;10.476;2023-10-09T11:32:22;101119.25;;;11.78;100.00
75543;BME280;64129;53.508;10.476;2023-10-09T11:35:13;101123.00;;;11.68;100.00
75543;BME280;64129;53.508;10.476;2023-10-09T11:38:10;101129.94;;;11.75;100.00
75543;BME280;64129;53.508;10.476;2023-10-09T11:40:54;101118.47;;;11.71;100.00
75543;BME280;64129;53.508;10.476;2023-10-09T11:43:25;101119.25;;;11.78;100.00
75543;BME280;64129;53.508;10.476;2023-10-09T11:46:21;101118.19;;;11.86;100.00
75543;BME280;64129;53.508;10.476;2023-10-09T11:49:27;101117.47;;;11.77;100.00
75543;BME280;64129;53.508;10.476;2023-10-09T11:52:16;101117.47;;;11.80;100.00
75543;BME280;64129;53.508;10.476;2023-10-09T11:55:06;101107.66;;;11.82;100.00
75543;BME280;64129;53.508;10.476;2023-10-09T11:57:49;101107.28;;;11.97;100.00
75543;BME280;64129;53.508;10.476;2023-10-09T12:00:22;101109.47;;;11.80;100.00
75543;BME280;64129;53.508;10.476;2023-10-09T12:03:32;101106.34;;;12.00;100.00
75543;BME280;64129;53.508;10.476;2023-10-09T12:06:10;101098.19;;;12.06;100.00
75543;BME280;64129;53.508;10.476;2023-10-09T12:08:42;101101.59;;;12.12;100.00
75543;BME280;64129;53.508;10.476;2023-10-09T12:11:09;101102.81;;;11.99;100.00
75543;BME280;64129;53.508;10.476;2023-10-09T12:13:51;101099.06;;;12.06;100.00
75543;BME280;64129;53.508;10.476;2023-10-09T12:16:28;101105.81;;;12.23;100.00
75543;BME280;64129;53.508;10.476;2023-10-09T12:18:58;101097.25;;;12.08;100.00
75543;BME280;64129;53.508;10.476;2023-10-09T12:21:32;101096.91;;;12.24;100.00
75543;BME280;64129;53.508;10.476;2023-10-09T12:24:04;101087.75;;;12.34;100.00
75543;BME280;64129;53.508;10.476;2023-10-09T12:26:41;101089.44;;;12.38;100.00
75543;BME280;64129;53.508;10.476;2023-10-09T12:29:17;101087.59;;;12.40;100.00
75543;BME280;64129;53.508;10.476;2023-10-09T12:31:51;101092.81;;;12.44;100.00
75543;BME280;64129;53.508;10.476;2023-10-09T12:34:39;101095.91;;;12.28;100.00
75543;BME280;64129;53.508;10.476;2023-10-09T12:37:16;101087.75;;;12.34;100.00
75543;BME280;64129;53.508;10.476;2023-10-09T12:39:47;101092.84;;;12.43;100.00
75543;BME280;64129;53.508;10.476;2023-10-09T12:42:15;101102.25;;;12.58;100.00
75543;BME280;64129;53.508;10.476;2023-10-09T12:44:49;101098.91;;;12.48;100.00
75543;BME280;64129;53.508;10.476;2023-10-09T12:47:25;101103.28;;;12.52;100.00
75543;BME280;64129;53.508;10.476;2023-10-09T12:49:56;101105.94;;;12.52;100.00
75543;BME280;64129;53.508;10.476;2023-10-09T12:52:22;101107.63;;;12.56;100.00
75543;BME280;64129;53.508;10.476;2023-10-09T12:55:06;101113.09;;;12.50;100.00
75543;BME280;64129;53.508;10.476;2023-10-09T12:57:41;101111.00;;;12.63;100.00
75543;BME280;64129;53.508;10.476;2023-10-09T13:00:09;101107.13;;;12.74;100.00
75543;BME280;64129;53.508;10.476;2023-10-09T13:02:48;101101.78;;;12.74;100.00
75543;BME280;64129;53.508;10.476;2023-10-09T13:05:32;101106.88;;;12.51;100.00
75543;BME280;64129;53.508;10.476;2023-10-09T13:08:10;101107.06;;;12.42;100.00
75543;BME280;64129;53.508;10.476;2023-10-09T13:10:39;101101.66;;;12.45;100.00
75543;BME280;64129;53.508;10.476;2023-10-09T13:13:15;101096.03;;;12.57;100.00
75543;BME280;64129;53.508;10.476;2023-10-09T13:18:27;101100.72;;;12.47;100.00
75543;BME280;64129;53.508;10.476;2023-10-09T13:20:55;101104.63;;;12.68;100.00
75543;BME280;64129;53.508;10.476;2023-10-09T13:23:22;101097.38;;;12.73;100.00
75543;BME280;64129;53.508;10.476;2023-10-09T13:26:08;101101.13;;;12.66;100.00
75543;BME280;64129;53.508;10.476;2023-10-09T13:28:52;101100.56;;;12.88;100.00
75543;BME280;64129;53.508;10.476;2023-10-09T13:31:21;101099.22;;;12.71;100.00
75543;BME280;64129;53.508;10.476;2023-10-09T13:34:05;101096.25;;;12.82;100.00
75543;BME280;64129;53.508;10.476;2023-10-09T13:36:40;101100.88;;;12.75;100.00
75543;BME280;64129;53.508;10.476;2023-10-09T13:39:29;101101.56;;;12.82;100.00
75543;BME280;64129;53.508;10.476;2023-10-09T13:42:08;101105.94;;;12.86;100.00
75543;BME280;64129;53.508;10.476;2023-10-09T13:44:39;101104.06;;;12.90;100.00
75543;BME280;64129;53.508;10.476;2023-10-09T13:47:28;101106.03;;;12.81;100.00
75543;BME280;64129;53.508;10.476;2023-10-09T13:50:12;101107.78;;;12.84;100.00
75543;BME280;64129;53.508;10.476;2023-10-09T13:52:40;101101.72;;;12.77;100.00
75543;BME280;64129;53.508;10.476;2023-10-09T13:55:08;101106.38;;;12.69;100.00
75543;BME280;64129;53.508;10.476;2023-10-09T13:58:12;101086.53;;;12.79;100.00
75543;BME280;64129;53.508;10.476;2023-10-09T14:00:51;101083.66;;;12.89;100.00
75543;BME280;64129;53.508;10.476;2023-10-09T14:03:20;101083.84;;;12.81;100.00